createdAt,value
2022-08-16T00:05:06.197Z,11.00
2022-08-16T00:10:20.752Z,12.52
2022-08-16T00:15:51.600Z,12.52
2022-08-16T00:21:09.374Z,15.93
2022-08-16T00:26:35.576Z,13.73
2022-08-16T00:32:01.025Z,14.10
2022-08-16T00:37:16.999Z,13.48
2022-08-16T00:42:30.411Z,14.02
2022-08-16T00:47:40.366Z,16.50
2022-08-16T00:52:51.066Z,13.90
2022-08-16T00:58:00.745Z,14.32
2022-08-16T01:03:30.083Z,14.93
2022-08-16T01:08:39.319Z,12.90
2022-08-16T01:13:50.991Z,13.60
2022-08-16T01:19:20.992Z,12.18
2022-08-16T01:24:56.085Z,13.02
2022-08-16T01:30:27.569Z,14.38
2022-08-16T01:35:42.932Z,12.07
2022-08-16T01:40:52.458Z,11.95
2022-08-16T01:46:29.332Z,12.50
2022-08-16T01:51:46.693Z,16.00
2022-08-16T01:56:52.242Z,11.88
2022-08-16T02:02:01.645Z,12.15
2022-08-16T02:07:14.340Z,14.18
2022-08-16T02:12:40.096Z,12.82
2022-08-16T02:18:02.400Z,12.18
2022-08-16T02:23:08.366Z,12.00
2022-08-16T02:28:25.841Z,11.35
2022-08-16T02:33:43.704Z,12.45
2022-08-16T02:38:51.294Z,12.25
2022-08-16T02:44:05.089Z,11.75
2022-08-16T02:49:58.684Z,11.32
2022-08-16T02:54:56.239Z,11.70
2022-08-16T03:00:34.046Z,12.68
2022-08-16T03:05:52.336Z,11.20
2022-08-16T03:11:02.775Z,11.48
2022-08-16T03:16:38.249Z,12.35
2022-08-16T03:21:51.848Z,12.05
2022-08-16T03:27:02.891Z,11.48
2022-08-16T03:32:36.107Z,12.48
2022-08-16T03:38:34.069Z,13.23
2022-08-16T03:43:52.514Z,13.65
2022-08-16T03:49:13.609Z,12.60
2022-08-16T03:54:23.962Z,12.23
2022-08-16T03:59:44.781Z,11.32
2022-08-16T04:04:53.984Z,12.00
2022-08-16T04:10:35.839Z,12.55
2022-08-16T04:15:37.938Z,11.25
2022-08-16T04:20:56.434Z,12.40
2022-08-16T04:26:16.620Z,11.20
2022-08-16T04:31:40.453Z,10.85
2022-08-16T04:37:04.042Z,10.98
2022-08-16T04:42:15.293Z,11.95
2022-08-16T04:47:44.799Z,10.38
2022-08-16T04:53:07.054Z,9.65
2022-08-16T04:58:44.624Z,9.90
2022-08-16T05:04:00.809Z,9.00
2022-08-16T05:09:14.248Z,8.30
2022-08-16T05:14:45.694Z,10.07
2022-08-16T05:19:57.213Z,9.68
2022-08-16T05:25:09.067Z,11.93
2022-08-16T05:30:35.514Z,6.20
2022-08-16T05:36:03.847Z,9.00
2022-08-16T05:41:32.549Z,6.10
2022-08-16T05:46:43.894Z,5.68
2022-08-16T05:51:54.660Z,10.10
2022-08-16T05:57:22.288Z,8.48
2022-08-16T06:02:35.332Z,5.97
2022-08-16T06:07:46.502Z,4.70
2022-08-16T06:13:55.354Z,4.15
2022-08-16T06:19:07.990Z,3.95
2022-08-16T06:24:55.139Z,6.47
2022-08-16T06:29:54.962Z,5.50
2022-08-16T06:35:06.136Z,4.13
2022-08-16T06:40:15.935Z,4.72
2022-08-16T06:45:33.238Z,3.20
2022-08-16T06:50:51.026Z,4.07
2022-08-16T06:56:23.415Z,5.57
2022-08-16T07:01:46.341Z,4.53
2022-08-16T07:07:03.951Z,4.00
2022-08-16T07:12:10.738Z,3.55
2022-08-16T07:17:50.081Z,2.78
2022-08-16T07:23:13.332Z,3.33
2022-08-16T07:28:44.040Z,4.78
2022-08-16T07:33:55.667Z,3.38
2022-08-16T07:39:09.599Z,5.45
2022-08-16T07:44:50.726Z,3.30
2022-08-16T07:50:57.382Z,4.68
2022-08-16T07:56:14.734Z,4.15
2022-08-16T08:01:28.190Z,4.22
2022-08-16T08:06:40.067Z,3.13
2022-08-16T08:11:59.911Z,4.03
2022-08-16T08:17:18.655Z,7.38
2022-08-16T08:22:44.108Z,4.40
2022-08-16T08:27:57.748Z,6.38
2022-08-16T08:33:15.831Z,8.30
2022-08-16T08:38:43.569Z,3.92
2022-08-16T08:43:50.498Z,5.22
2022-08-16T08:49:06.883Z,5.70
2022-08-16T08:54:46.014Z,4.20
2022-08-16T09:00:00.695Z,8.40
2022-08-16T09:05:15.611Z,7.20
2022-08-16T09:10:24.356Z,8.60
2022-08-16T09:15:55.046Z,4.82
2022-08-16T09:21:02.018Z,6.45
2022-08-16T09:26:44.192Z,11.15
2022-08-16T09:31:56.845Z,42.28
2022-08-16T09:37:03.594Z,50.15
2022-08-16T09:42:55.924Z,6.38
2022-08-16T09:48:09.351Z,4.60
2022-08-16T09:53:16.866Z,4.57
2022-08-16T09:58:41.759Z,4.53
2022-08-16T10:04:02.293Z,7.28
2022-08-16T10:09:18.348Z,7.45
2022-08-16T10:14:32.877Z,2.42
2022-08-16T10:19:44.201Z,4.55
2022-08-16T10:24:56.037Z,10.45
2022-08-16T10:30:24.692Z,3.95
2022-08-16T10:35:46.575Z,4.57
2022-08-16T10:41:07.044Z,2.58
2022-08-16T10:46:33.781Z,2.75
2022-08-16T10:52:03.407Z,5.40
2022-08-16T10:57:37.855Z,3.20
2022-08-16T11:02:58.198Z,2.28
2022-08-16T11:08:10.337Z,5.30
2022-08-16T11:19:06.250Z,2.17
2022-08-16T11:24:40.238Z,2.05
2022-08-16T11:29:49.269Z,3.22
2022-08-16T11:35:10.762Z,2.00
2022-08-16T11:40:19.532Z,2.22
2022-08-16T11:45:26.115Z,2.13
2022-08-16T11:50:39.723Z,2.35
2022-08-16T11:55:54.855Z,4.45
2022-08-16T12:01:02.858Z,4.25
2022-08-16T12:06:30.666Z,1.80
2022-08-16T12:11:43.781Z,3.35
2022-08-16T12:17:24.732Z,3.42
2022-08-16T12:22:49.104Z,4.80
2022-08-16T12:27:55.748Z,2.55
2022-08-16T12:33:09.319Z,4.30
2022-08-16T12:38:41.319Z,3.30
2022-08-16T12:44:11.948Z,3.40
2022-08-16T12:49:41.812Z,2.53
2022-08-16T12:54:58.000Z,5.95
2022-08-16T13:00:09.076Z,2.83
2022-08-16T13:05:21.271Z,5.85
2022-08-16T13:10:47.083Z,2.08
2022-08-16T13:16:15.418Z,2.28
2022-08-16T13:21:31.956Z,3.13
2022-08-16T13:26:54.293Z,2.72
2022-08-16T13:32:39.755Z,2.53
2022-08-16T13:37:41.307Z,2.20
2022-08-16T13:42:48.005Z,2.35
2022-08-16T13:48:06.587Z,1.83
2022-08-16T13:53:18.842Z,10.50
2022-08-16T13:58:50.525Z,3.33
2022-08-16T14:04:02.860Z,4.03
2022-08-16T14:09:14.275Z,1.88
2022-08-16T14:14:32.002Z,3.50
2022-08-16T14:25:34.062Z,2.45
2022-08-16T14:30:44.887Z,4.65
2022-08-16T14:36:05.027Z,3.00
2022-08-16T14:41:27.589Z,3.45
2022-08-16T14:46:36.843Z,4.47
2022-08-16T14:52:02.702Z,3.17
2022-08-16T14:57:31.820Z,3.58
2022-08-16T15:02:55.997Z,2.08
2022-08-16T15:13:27.110Z,5.00
2022-08-16T15:18:41.295Z,3.75
2022-08-16T15:24:16.506Z,3.08
2022-08-16T15:29:53.293Z,1.90
2022-08-16T15:35:17.125Z,5.53
2022-08-16T15:40:56.671Z,6.28
2022-08-16T15:46:54.639Z,3.33
2022-08-16T15:52:10.723Z,1.60
2022-08-16T15:57:19.984Z,4.85
2022-08-16T16:02:31.796Z,4.97
2022-08-16T16:07:56.242Z,9.82
2022-08-16T16:13:03.919Z,15.00
2022-08-16T16:18:11.008Z,2.17
2022-08-16T16:23:34.565Z,3.15
2022-08-16T16:29:07.490Z,2.80
2022-08-16T16:34:17.526Z,1.60
2022-08-16T16:39:33.789Z,6.07
2022-08-16T16:44:50.755Z,3.53
2022-08-16T16:49:57.704Z,3.38
2022-08-16T16:55:17.002Z,2.72
2022-08-16T17:00:25.998Z,4.72
2022-08-16T17:05:54.102Z,3.08
2022-08-16T17:11:08.122Z,2.47
2022-08-16T17:16:18.621Z,3.35
2022-08-16T17:21:27.748Z,2.67
2022-08-16T17:26:48.953Z,6.13
2022-08-16T17:31:53.519Z,4.40
2022-08-16T17:37:09.921Z,2.03
2022-08-16T17:42:30.281Z,3.28
2022-08-16T17:47:42.763Z,5.50
2022-08-16T17:52:52.623Z,11.77
2022-08-16T17:58:22.797Z,16.42
2022-08-16T18:04:06.866Z,10.82
2022-08-16T18:09:03.951Z,9.35
2022-08-16T18:25:20.794Z,7.82
2022-08-16T18:30:35.047Z,3.22
2022-08-16T18:35:57.843Z,6.88
2022-08-16T18:41:05.741Z,7.18
2022-08-16T18:46:19.581Z,5.07
2022-08-16T18:51:40.276Z,4.85
2022-08-16T18:56:57.015Z,4.13
2022-08-16T19:02:06.153Z,4.75
2022-08-16T19:07:15.443Z,3.40
2022-08-16T19:12:37.930Z,4.47
2022-08-16T19:18:18.038Z,3.83
2022-08-16T19:23:37.235Z,4.72
2022-08-16T19:28:58.929Z,5.22
2022-08-16T19:34:18.315Z,6.57
2022-08-16T19:39:35.354Z,2.90
2022-08-16T19:44:42.716Z,3.67
2022-08-16T19:49:50.046Z,3.05
2022-08-16T19:55:04.925Z,3.65
2022-08-16T20:00:22.259Z,5.60
2022-08-16T20:06:03.552Z,4.68
2022-08-16T20:11:38.705Z,3.25
2022-08-16T20:16:59.528Z,5.97
2022-08-16T20:22:42.105Z,6.72
2022-08-16T20:27:56.722Z,11.63
2022-08-16T20:33:13.567Z,8.60
2022-08-16T20:38:27.401Z,9.60
2022-08-16T20:43:37.222Z,7.55
2022-08-16T20:48:42.685Z,8.98
2022-08-16T20:54:12.876Z,7.63
2022-08-16T20:59:26.889Z,6.28
2022-08-16T21:04:37.151Z,5.60
2022-08-16T21:09:46.074Z,6.53
2022-08-16T21:15:12.972Z,8.25
2022-08-16T21:20:38.889Z,9.85
2022-08-16T21:25:58.332Z,5.78
2022-08-16T21:31:08.817Z,6.78
2022-08-16T21:36:34.963Z,8.10
2022-08-16T21:41:49.694Z,6.32
2022-08-16T21:47:08.678Z,7.88
2022-08-16T21:52:29.256Z,8.40
2022-08-16T21:58:07.815Z,5.75
2022-08-16T22:03:15.436Z,9.30
2022-08-16T22:08:28.834Z,7.40
2022-08-16T22:13:49.259Z,7.38
2022-08-16T22:19:16.001Z,7.13
2022-08-16T22:24:30.441Z,7.20
2022-08-16T22:29:44.835Z,5.35
2022-08-16T22:34:55.662Z,7.20
2022-08-16T22:40:05.921Z,6.95
2022-08-16T22:45:25.465Z,6.28
2022-08-16T22:50:33.450Z,9.57
2022-08-16T22:55:45.489Z,7.63
2022-08-16T23:01:28.269Z,6.28
2022-08-16T23:06:38.604Z,8.77
2022-08-16T23:12:11.590Z,5.90
2022-08-16T23:17:41.936Z,7.45
2022-08-16T23:23:19.955Z,6.82
2022-08-16T23:28:36.039Z,6.03
2022-08-16T23:33:51.037Z,5.38
2022-08-16T23:39:07.684Z,6.90
2022-08-16T23:44:58.533Z,5.53
2022-08-16T23:55:20.004Z,8.77
